Time;durP1;ratioP1;P1;durP2;ratioP2;P2;SDS_P1;SDS_P2;PMS_P1;PMS_P2;Temp;Humidity;BMP_temperature;BMP_pressure;BME280_temperature;BME280_humidity;BME280_pressure;Samples;Min_cycle;Max_cycle;Signal;HPM_P1;HPM_P2
2021/03/22 00:04:12;;;;;;;11.02;2.95;;;;;;;1.21;63.21;100150.16;10506941;28;20075;-68
2021/03/22 00:09:14;;;;;;;8.70;2.13;;;;;;;1.52;62.06;100139.16;10507704;28;20470;-68
2021/03/22 00:14:15;;;;;;;5.80;1.70;;;;;;;1.61;61.94;100146.09;10506890;28;20094;-68
2021/03/22 00:19:16;;;;;;;7.57;2.00;;;;;;;1.30;63.01;100150.22;10488617;28;20051;-68
2021/03/22 00:24:17;;;;;;;7.97;2.42;;;;;;;1.49;63.37;100159.84;10506737;28;20040;-68
2021/03/22 00:29:19;;;;;;;10.43;2.88;;;;;;;1.46;65.69;100159.84;10487376;28;20040;-68
2021/03/22 00:34:20;;;;;;;19.30;4.95;;;;;;;1.30;66.90;100168.34;10506188;28;20163;-68
2021/03/22 00:39:22;;;;;;;17.80;3.88;;;;;;;1.25;67.69;100173.47;10506401;28;20373;-68
2021/03/22 00:44:23;;;;;;;13.15;3.85;;;;;;;1.19;67.85;100175.13;10506843;28;20052;-68
2021/03/22 00:49:24;;;;;;;17.13;3.33;;;;;;;1.03;68.36;100176.75;10505866;28;20059;-68
2021/03/22 00:54:25;;;;;;;18.23;4.90;;;;;;;1.27;68.98;100173.50;10505232;28;20060;-68
2021/03/22 00:59:27;;;;;;;19.08;4.40;;;;;;;1.16;69.38;100176.00;10486856;28;20486;-67
2021/03/22 01:04:28;;;;;;;22.17;4.10;;;;;;;1.21;69.44;100174.31;10505093;28;20040;-68
2021/03/22 01:09:29;;;;;;;26.05;5.60;;;;;;;1.10;69.75;100169.88;10504191;28;20071;-69
2021/03/22 01:14:31;;;;;;;29.67;4.47;;;;;;;1.04;69.97;100164.66;10504907;28;20051;-68
2021/03/22 01:19:32;;;;;;;25.85;4.38;;;;;;;0.84;70.92;100165.38;10503343;28;20051;-68
2021/03/22 01:24:33;;;;;;;28.95;5.70;;;;;;;0.87;71.54;100156.75;10504022;28;20051;-68
2021/03/22 01:29:38;;;;;;;34.35;6.95;;;;;;;1.16;71.38;100154.44;10503002;28;20094;-68
2021/03/22 01:34:40;;;;;;;34.85;4.70;;;;;;;1.21;71.53;100147.56;10502575;28;20585;-68
2021/03/22 01:39:41;;;;;;;26.63;6.10;;;;;;;1.03;71.98;100147.41;10503086;28;20040;-68
2021/03/22 01:45:05;;;;;;;18.67;4.93;;;;;;;0.87;72.63;100165.38;10503869;28;20072;-69
2021/03/22 01:50:16;;;;;;;31.17;6.20;;;;;;;0.89;73.16;100145.56;10484874;28;20131;-68
2021/03/22 01:55:20;;;;;;;29.10;5.97;;;;;;;1.17;72.26;100143.22;10502078;28;20737;-68
2021/03/22 02:00:33;;;;;;;31.85;6.95;;;;;;;0.98;72.63;100150.81;10502527;28;20040;-67
2021/03/22 02:05:37;;;;;;;25.75;6.05;;;;;;;1.06;72.96;100157.78;10503958;28;20409;-67
2021/03/22 02:10:41;;;;;;;36.35;6.80;;;;;;;0.88;73.08;100154.16;10503593;28;20051;-69
2021/03/22 02:15:45;;;;;;;33.90;5.78;;;;;;;1.08;73.05;100151.75;10484770;28;20055;-68
2021/03/22 02:21:24;;;;;;;47.05;6.07;;;;;;;1.23;72.42;100157.06;10502352;28;20041;-68
2021/03/22 02:26:57;;;;;;;35.47;6.68;;;;;;;1.48;71.89;100154.66;10502784;28;20097;-67
2021/03/22 02:32:36;;;;;;;32.05;6.70;;;;;;;1.39;71.86;100149.41;10485414;28;20033;-67
2021/03/22 02:37:57;;;;;;;33.47;5.78;;;;;;;1.31;72.05;100157.13;10485086;28;20056;-68
2021/03/22 02:43:01;;;;;;;28.30;6.13;;;;;;;1.29;72.29;100150.22;10502756;28;20049;-68
2021/03/22 02:48:03;;;;;;;33.08;6.07;;;;;;;1.38;72.01;100142.50;10503218;28;20633;-68
2021/03/22 02:53:42;;;;;;;34.00;6.25;;;;;;;1.34;72.06;100154.56;10503255;28;20134;-68
2021/03/22 02:58:58;;;;;;;33.55;5.47;;;;;;;1.32;71.87;100158.84;10484643;28;20098;-65
2021/03/22 03:04:00;;;;;;;33.10;6.30;;;;;;;1.36;72.13;100162.34;10501721;28;20048;-65
2021/03/22 03:09:02;;;;;;;32.13;6.00;;;;;;;1.32;71.99;100164.03;10490336;28;20094;-65
2021/03/22 03:14:04;;;;;;;44.22;7.28;;;;;;;1.20;72.21;100164.81;10501293;28;20071;-64
2021/03/22 03:19:06;;;;;;;33.00;7.10;;;;;;;1.17;72.54;100171.69;10508726;28;20116;-66
2021/03/22 03:24:09;;;;;;;31.80;5.95;;;;;;;1.12;72.28;100186.31;10490467;28;20139;-65
2021/03/22 03:29:11;;;;;;;21.55;5.00;;;;;;;1.13;72.21;100181.16;10489875;28;20045;-66
2021/03/22 03:34:12;;;;;;;33.63;6.55;;;;;;;1.26;72.17;100182.13;10489900;28;20049;-66
2021/03/22 03:39:14;;;;;;;34.20;6.32;;;;;;;0.97;72.42;100187.03;10490028;28;20127;-66
2021/03/22 03:44:15;;;;;;;32.42;5.93;;;;;;;1.28;71.67;100185.56;10507623;28;20040;-65
2021/03/22 03:49:17;;;;;;;22.63;5.32;;;;;;;1.15;72.13;100188.91;10507313;28;20112;-66
2021/03/22 03:54:20;;;;;;;23.40;5.30;;;;;;;1.14;72.09;100193.22;10507278;28;20045;-66
2021/03/22 03:59:21;;;;;;;30.13;5.35;;;;;;;1.19;71.93;100203.63;10506714;28;20036;-66
2021/03/22 04:04:23;;;;;;;35.22;6.43;;;;;;;1.11;72.37;100195.81;10507046;28;20139;-66
2021/03/22 04:09:24;;;;;;;35.55;5.80;;;;;;;1.18;72.04;100197.59;10507439;28;20033;-64
2021/03/22 04:14:28;;;;;;;47.35;7.07;;;;;;;1.14;72.08;100197.53;10507165;28;20047;-64
2021/03/22 04:19:29;;;;;;;28.95;6.07;;;;;;;1.33;71.58;100178.72;10506823;28;20474;-64
2021/03/22 04:24:32;;;;;;;29.73;6.63;;;;;;;1.23;71.70;100189.84;10471850;28;20110;-65
2021/03/22 04:29:33;;;;;;;31.45;6.80;;;;;;;1.27;71.98;100189.03;10506274;28;20088;-67
2021/03/22 04:34:34;;;;;;;25.70;6.25;;;;;;;1.17;72.40;100190.69;10506075;28;20094;-67
2021/03/22 04:39:38;;;;;;;29.55;6.40;;;;;;;1.43;72.18;100197.81;10486333;28;20048;-66
2021/03/22 04:44:40;;;;;;;30.85;7.55;;;;;;;1.37;71.92;100211.53;10470753;28;20055;-65
2021/03/22 04:49:41;;;;;;;26.63;5.25;;;;;;;1.59;71.52;100199.63;10505663;28;20036;-66
2021/03/22 04:54:42;;;;;;;23.98;5.82;;;;;;;1.40;71.61;100206.41;10505899;28;20414;-65
2021/03/22 04:59:44;;;;;;;26.05;6.40;;;;;;;1.42;71.84;100204.72;10487042;28;20041;-65
2021/03/22 05:04:46;;;;;;;34.55;7.35;;;;;;;1.35;71.84;100209.81;10506247;28;20048;-65
2021/03/22 05:09:47;;;;;;;25.90;6.35;;;;;;;1.60;71.59;100216.94;10486172;28;20047;-65
2021/03/22 05:14:49;;;;;;;25.73;6.38;;;;;;;1.59;71.30;100224.66;10504865;28;20048;-66
2021/03/22 05:19:50;;;;;;;42.83;9.38;;;;;;;1.28;72.44;100227.00;10506882;28;20045;-65
2021/03/22 05:24:52;;;;;;;34.92;7.20;;;;;;;1.53;71.64;100222.91;10487748;28;20054;-65
2021/03/22 05:29:53;;;;;;;31.40;8.18;;;;;;;1.53;71.91;100225.50;10505843;28;20075;-66
2021/03/22 05:34:54;;;;;;;40.15;8.75;;;;;;;1.57;72.00;100235.03;10504284;28;20040;-66
2021/03/22 05:39:56;;;;;;;36.28;8.32;;;;;;;1.78;71.52;100236.94;10505630;28;20052;-66
2021/03/22 05:45:05;;;;;;;39.97;9.68;;;;;;;1.62;71.67;100248.03;10503584;28;20379;-66
2021/03/22 05:50:14;;;;;;;25.85;7.65;;;;;;;1.76;71.29;100243.81;10505522;28;20514;-65
2021/03/22 05:55:49;;;;;;;46.65;9.18;;;;;;;2.04;70.68;100247.47;10508248;28;20041;-66
2021/03/22 06:01:02;;;;;;;45.30;13.02;;;;;;;1.85;71.21;100253.38;10506285;28;20080;-65
2021/03/22 06:06:29;;;;;;;38.38;8.55;;;;;;;1.89;71.27;100258.59;10505739;28;20127;-66
2021/03/22 06:11:33;;;;;;;43.43;9.20;;;;;;;2.05;71.07;100262.16;10503413;28;20107;-66
2021/03/22 06:16:38;;;;;;;32.13;7.45;;;;;;;2.38;70.02;100251.09;10502997;28;20040;-66
2021/03/22 06:21:43;;;;;;;30.00;6.95;;;;;;;2.29;70.21;100253.66;10504528;28;20125;-66
2021/03/22 06:26:56;;;;;;;31.83;6.88;;;;;;;2.45;69.91;100255.47;10505066;28;20048;-64
2021/03/22 06:32:15;;;;;;;38.03;7.82;;;;;;;2.72;69.28;100257.31;10506776;28;20041;-66
2021/03/22 06:37:20;;;;;;;30.77;8.52;;;;;;;2.66;69.56;100266.81;10506774;28;20048;-67
2021/03/22 06:42:24;;;;;;;32.20;7.03;;;;;;;2.69;69.46;100277.19;10504662;28;20033;-64
2021/03/22 06:47:32;;;;;;;55.78;10.55;;;;;;;2.66;69.33;100290.16;10505799;28;20048;-66
2021/03/22 06:52:37;;;;;;;;;;;;;;;2.59;70.13;100297.03;10504514;28;20105;-65
2021/03/22 06:57:50;;;;;;;44.20;11.32;;;;;;;2.74;69.28;100306.63;10504224;28;19920;-66
2021/03/22 07:02:59;;;;;;;38.17;9.35;;;;;;;2.62;70.00;100302.25;10502821;28;20043;-65
2021/03/22 07:08:04;;;;;;;28.25;8.70;;;;;;;2.84;69.63;100316.19;10503472;28;20148;-65
2021/03/22 07:13:20;;;;;;;28.65;7.68;;;;;;;2.97;69.17;100320.59;10502352;28;20115;-67
2021/03/22 07:18:28;;;;;;;39.47;7.65;;;;;;;3.20;69.03;100323.25;10503735;28;20071;-66
2021/03/22 07:23:42;;;;;;;29.17;7.90;;;;;;;3.46;67.59;100333.69;10503585;28;20106;-65
2021/03/22 07:28:58;;;;;;;29.83;7.28;;;;;;;3.09;68.75;100326.66;10503824;28;20066;-66
2021/03/22 07:34:24;;;;;;;23.02;7.38;;;;;;;3.33;67.97;100337.13;10502496;28;20090;-65
2021/03/22 07:39:46;;;;;;;35.33;9.23;;;;;;;3.37;68.12;100335.41;10501495;28;20131;-65
2021/03/22 07:44:53;;;;;;;34.83;7.20;;;;;;;3.36;68.00;100350.13;10505045;28;20070;-65
2021/03/22 07:50:22;;;;;;;39.83;8.70;;;;;;;3.39;68.04;100352.72;10501147;28;20124;-65
2021/03/22 07:55:23;;;;;;;30.27;8.35;;;;;;;3.62;67.71;100349.31;10491267;28;20053;-66
2021/03/22 08:00:40;;;;;;;34.70;7.88;;;;;;;3.59;67.90;100355.38;10491651;28;20067;-65
2021/03/22 08:06:19;;;;;;;44.87;8.33;;;;;;;3.65;68.08;100350.19;10509385;28;20059;-67
2021/03/22 08:11:47;;;;;;;40.22;8.00;;;;;;;3.76;66.87;100352.78;10509351;28;20291;-65
2021/03/22 08:17:03;;;;;;;40.45;9.55;;;;;;;3.79;67.85;100366.66;10507989;28;20044;-65
2021/03/22 08:22:27;;;;;;;23.50;7.32;;;;;;;4.00;65.84;100359.75;10507951;28;20044;-66
2021/03/22 08:27:33;;;;;;;34.25;8.18;;;;;;;4.27;65.56;100369.28;10508746;28;20080;-65
2021/03/22 08:33:19;;;;;;;30.23;8.65;;;;;;;4.39;65.27;100377.09;10509157;28;20466;-65
2021/03/22 08:38:40;;;;;;;24.40;7.38;;;;;;;4.26;64.98;100388.38;10507861;28;20051;-66
2021/03/22 08:43:50;;;;;;;25.83;7.03;;;;;;;4.57;64.51;100394.41;10507449;28;20041;-66
2021/03/22 08:48:51;;;;;;;36.78;7.63;;;;;;;4.50;64.22;100403.09;10489170;28;20045;-66
2021/03/22 08:53:55;;;;;;;29.35;7.38;;;;;;;4.65;64.04;100412.59;10511617;28;20044;-66
2021/03/22 08:59:06;;;;;;;26.67;7.13;;;;;;;4.62;64.13;100413.50;10491650;22;20102;-63
2021/03/22 09:04:19;;;;;;;32.17;6.95;;;;;;;4.74;63.32;100417.81;10502578;28;20043;-62
2021/03/22 09:09:29;;;;;;;25.60;8.00;;;;;;;4.97;62.58;100417.75;10505555;28;20448;-64
2021/03/22 09:14:42;;;;;;;24.42;7.50;;;;;;;5.12;63.42;100422.06;10502734;28;20048;-63
2021/03/22 09:19:45;;;;;;;25.98;7.32;;;;;;;5.03;63.05;100421.19;10503517;28;20074;-63
2021/03/22 09:24:55;;;;;;;22.77;7.13;;;;;;;5.42;61.71;100421.94;10501711;28;20052;-62
2021/03/22 09:29:56;;;;;;;13.90;5.15;;;;;;;5.76;60.60;100417.41;10483678;28;20044;-63
2021/03/22 09:35:13;;;;;;;25.45;6.30;;;;;;;5.65;59.75;100418.34;10502476;28;20543;-63
2021/03/22 09:40:34;;;;;;;36.92;7.10;;;;;;;5.29;60.96;100420.25;10484896;28;20050;-64
2021/03/22 09:45:38;;;;;;;20.33;4.93;;;;;;;5.75;59.26;100418.25;10501166;28;20045;-63
2021/03/22 09:50:40;;;;;;;21.50;5.75;;;;;;;6.07;58.63;100412.03;10502415;28;20040;-63
2021/03/22 09:55:49;;;;;;;18.33;5.20;;;;;;;6.36;57.98;100410.91;10500572;28;20090;-63
2021/03/22 10:00:53;;;;;;;14.70;5.30;;;;;;;6.49;55.73;100418.63;10499784;28;20037;-63
2021/03/22 10:06:03;;;;;;;16.15;5.15;;;;;;;6.84;56.30;100417.41;10498958;28;20047;-64
2021/03/22 10:11:26;;;;;;;11.68;3.67;;;;;;;6.94;54.86;100408.59;10500463;28;20090;-64
2021/03/22 10:16:31;;;;;;;9.82;4.32;;;;;;;6.94;54.25;100413.81;10480673;28;20149;-62
2021/03/22 10:21:37;;;;;;;12.32;4.50;;;;;;;7.20;54.55;100412.66;10498566;28;20045;-64
2021/03/22 10:26:44;;;;;;;25.83;4.00;;;;;;;6.87;52.64;100412.16;10499913;28;20398;-64
2021/03/22 10:32:07;;;;;;;;;;;;;;;7.65;50.71;100397.25;10501403;28;20044;-62
2021/03/22 10:37:21;;;;;;;10.38;3.00;;;;;;;8.13;50.41;100400.03;10499998;28;19921;-63
2021/03/22 10:42:43;;;;;;;9.05;3.00;;;;;;;8.56;47.54;100394.97;10500637;28;20532;-64
2021/03/22 10:47:44;;;;;;;9.77;3.42;;;;;;;9.04;47.50;100385.31;10496804;28;20040;-62
2021/03/22 10:53:06;;;;;;;8.30;2.80;;;;;;;8.48;46.82;100389.84;10498927;28;20072;-63
2021/03/22 11:11:42;;;;;;;5.90;2.38;;;;;;;9.64;44.54;100386.66;10498477;28;20061;-62
2021/03/22 11:16:44;;;;;;;10.35;3.28;;;;;;;9.43;43.83;100395.91;10494184;28;20086;-62
2021/03/22 11:21:46;;;;;;;8.70;2.63;;;;;;;9.18;47.22;100392.91;10492740;28;20433;-62
2021/03/22 11:27:00;;;;;;;11.45;3.40;;;;;;;9.49;45.63;100402.75;10493967;28;20037;-63
2021/03/22 11:32:04;;;;;;;8.85;2.85;;;;;;;9.33;44.59;100387.34;10502997;28;20067;-63
2021/03/22 11:37:13;;;;;;;7.05;3.22;;;;;;;9.46;44.91;100397.56;10506136;28;20041;-63
2021/03/22 11:42:14;;;;;;;8.95;2.85;;;;;;;9.46;44.93;100400.19;10505128;28;20044;-64
2021/03/22 11:47:29;;;;;;;6.88;2.42;;;;;;;9.60;44.24;100391.13;10505364;28;20102;-65
2021/03/22 11:52:32;;;;;;;8.93;3.17;;;;;;;10.44;45.32;100395.31;10504642;28;20067;-62
2021/03/22 11:57:39;;;;;;;10.93;3.03;;;;;;;9.64;46.08;100381.41;10505038;28;20076;-64
2021/03/22 12:02:53;;;;;;;8.40;2.92;;;;;;;9.21;46.60;100382.38;10505802;28;20040;-62
2021/03/22 12:07:55;;;;;;;9.77;3.40;;;;;;;8.75;46.83;100387.63;10473266;28;20097;-64
2021/03/22 12:12:58;;;;;;;8.32;3.10;;;;;;;9.22;44.70;100380.59;10503309;28;20048;-64
2021/03/22 12:18:05;;;;;;;7.60;2.38;;;;;;;9.48;45.25;100375.66;10487270;28;20114;-64
2021/03/22 12:23:08;;;;;;;8.95;2.25;;;;;;;10.01;43.84;100376.19;10503760;28;20098;-64
2021/03/22 12:28:09;;;;;;;8.32;2.58;;;;;;;9.90;44.55;100372.09;10504514;28;20401;-62
2021/03/22 12:33:24;;;;;;;12.52;3.42;;;;;;;8.88;45.82;100383.88;10503980;28;20037;-63
2021/03/22 12:38:25;;;;;;;7.53;2.80;;;;;;;8.26;46.96;100388.47;10503039;28;20131;-63
2021/03/22 12:43:34;;;;;;;7.03;2.53;;;;;;;8.00;46.58;100387.13;10503449;28;20064;-63
2021/03/22 12:48:36;;;;;;;6.68;2.72;;;;;;;7.63;47.47;100386.81;10485292;28;20048;-64
2021/03/22 12:53:38;;;;;;;8.45;2.22;;;;;;;7.86;46.18;100388.22;10485681;28;20068;-63
2021/03/22 12:58:39;;;;;;;7.60;2.17;;;;;;;8.54;45.80;100392.38;10502348;28;20108;-62
2021/03/22 13:03:41;;;;;;;4.57;2.05;;;;;;;8.97;43.83;100388.09;10484327;28;20053;-62
2021/03/22 13:08:43;;;;;;;8.23;3.40;;;;;;;8.78;42.93;100382.34;10484821;28;20115;-62
2021/03/22 13:13:44;;;;;;;6.55;2.33;;;;;;;8.67;41.93;100377.28;10502594;28;20048;-62
2021/03/22 13:18:46;;;;;;;4.78;2.30;;;;;;;8.38;43.80;100376.97;10502710;28;20127;-62
2021/03/22 13:23:48;;;;;;;7.43;2.60;;;;;;;8.18;44.85;100367.63;10501972;28;20389;-63
2021/03/22 13:28:53;;;;;;;6.95;2.00;;;;;;;8.75;43.00;100364.03;10501199;28;20043;-62
2021/03/22 13:33:55;;;;;;;6.32;2.33;;;;;;;8.61;43.20;100373.94;10501413;28;20201;-62
2021/03/22 13:38:57;;;;;;;13.20;2.60;;;;;;;8.40;43.73;100373.41;10503019;28;20482;-62
2021/03/22 13:43:59;;;;;;;6.03;2.05;;;;;;;8.29;43.05;100380.56;10501672;28;20480;-62
2021/03/22 13:49:00;;;;;;;6.00;2.38;;;;;;;8.05;44.44;100373.97;10501233;28;20158;-62
2021/03/22 13:54:03;;;;;;;5.68;1.80;;;;;;;8.10;42.99;100369.50;10501707;28;20047;-62
2021/03/22 13:59:16;;;;;;;6.63;1.80;;;;;;;8.63;43.16;100369.50;10500575;28;20398;-62
2021/03/22 14:04:20;;;;;;;7.45;2.50;;;;;;;8.52;43.23;100373.19;10500294;28;20054;-62
2021/03/22 14:09:22;;;;;;;9.07;2.47;;;;;;;8.52;44.49;100383.69;10497314;28;20040;-62
2021/03/22 14:14:24;;;;;;;7.57;2.60;;;;;;;8.00;45.29;100387.13;10478653;28;20329;-62
2021/03/22 14:19:25;;;;;;;5.80;2.17;;;;;;;7.62;45.27;100389.47;10477788;28;20489;-63
2021/03/22 14:24:27;;;;;;;4.88;2.33;;;;;;;7.49;45.56;100388.75;10500557;28;20147;-64
2021/03/22 14:29:28;;;;;;;8.20;3.00;;;;;;;7.46;44.76;100392.28;10498463;28;20045;-62
2021/03/22 14:34:29;;;;;;;4.32;1.85;;;;;;;7.77;43.96;100386.63;10498647;28;20132;-64
2021/03/22 14:39:31;;;;;;;7.57;2.13;;;;;;;7.81;43.18;100383.94;10480048;28;20090;-63
2021/03/22 14:44:32;;;;;;;5.00;2.00;;;;;;;7.50;43.96;100393.09;10485796;28;20094;-64
2021/03/22 14:49:33;;;;;;;6.43;2.03;;;;;;;7.55;44.84;100380.81;10482416;28;20083;-64
2021/03/22 14:54:35;;;;;;;4.28;1.75;;;;;;;7.32;44.50;100383.75;10496836;28;20040;-63
2021/03/22 14:59:36;;;;;;;6.35;2.65;;;;;;;7.24;44.64;100396.06;10514522;22;20049;-69
2021/03/22 15:04:38;;;;;;;7.25;1.92;;;;;;;7.31;45.11;100389.88;10517809;28;20044;-69
2021/03/22 15:09:50;;;;;;;6.70;2.15;;;;;;;7.05;45.30;100396.28;10505239;28;20070;-69
2021/03/22 15:14:51;;;;;;;4.18;1.77;;;;;;;6.91;44.97;100399.94;10520360;28;20041;-67
2021/03/22 15:19:52;;;;;;;9.30;2.25;;;;;;;6.86;45.30;100407.78;10494049;28;20033;-69
2021/03/22 15:24:54;;;;;;;7.18;1.83;;;;;;;6.90;44.49;100398.19;10516676;28;20141;-70
2021/03/22 15:29:55;;;;;;;5.75;1.42;;;;;;;7.05;44.60;100393.66;10512772;28;20037;-68
2021/03/22 15:34:57;;;;;;;4.32;1.90;;;;;;;6.94;44.62;100392.03;10497511;28;20052;-68
2021/03/22 15:39:58;;;;;;;6.68;2.05;;;;;;;6.85;45.10;100394.75;10512403;28;20486;-67
2021/03/22 15:45:01;;;;;;;5.78;1.70;;;;;;;6.94;45.96;100399.88;10493260;28;20409;-69
2021/03/22 15:50:04;;;;;;;5.38;2.20;;;;;;;7.17;45.59;100407.47;10509659;28;20036;-68
2021/03/22 15:55:05;;;;;;;6.70;2.05;;;;;;;7.21;45.37;100396.94;10492370;28;20102;-68
2021/03/22 16:00:07;;;;;;;6.80;2.40;;;;;;;7.29;44.59;100405.56;10513210;28;20041;-68
2021/03/22 16:05:13;;;;;;;6.28;2.33;;;;;;;7.05;44.96;100404.13;10512303;28;20048;-68
2021/03/22 16:10:17;;;;;;;6.15;2.20;;;;;;;7.32;45.50;100407.28;10493990;28;20079;-68
2021/03/22 16:15:21;;;;;;;7.95;2.17;;;;;;;7.35;46.22;100412.50;10509862;28;20461;-67
2021/03/22 16:20:27;;;;;;;9.85;2.55;;;;;;;7.38;47.69;100416.78;10494150;28;20051;-68
2021/03/22 16:25:31;;;;;;;9.75;3.45;;;;;;;7.26;49.43;100428.25;10511387;28;20080;-68
2021/03/22 16:30:35;;;;;;;12.50;3.60;;;;;;;7.42;49.51;100435.03;10494127;28;20040;-69
2021/03/22 16:35:39;;;;;;;11.90;3.60;;;;;;;7.31;50.39;100443.03;10478435;28;20106;-68
2021/03/22 16:40:46;;;;;;;7.55;2.72;;;;;;;7.11;51.16;100444.13;10513122;28;20037;-69
2021/03/22 16:45:53;;;;;;;5.65;2.53;;;;;;;7.10;50.82;100450.25;10510947;28;20501;-68
2021/03/22 16:50:56;;;;;;;10.20;3.85;;;;;;;6.76;51.52;100443.63;10508793;28;20041;-69
2021/03/22 16:56:06;;;;;;;15.43;3.47;;;;;;;6.85;50.84;100447.03;10511775;28;20044;-69
2021/03/22 17:01:08;;;;;;;14.02;3.97;;;;;;;6.88;50.89;100454.84;10494241;28;20063;-68
2021/03/22 17:06:10;;;;;;;14.95;4.45;;;;;;;6.67;52.09;100463.75;10511083;28;20071;-67
2021/03/22 17:11:12;;;;;;;8.77;3.70;;;;;;;6.62;52.69;100457.69;10509560;28;20146;-67
2021/03/22 17:16:14;;;;;;;10.77;4.43;;;;;;;6.42;53.81;100458.75;10508656;28;20040;-69
2021/03/22 17:21:15;;;;;;;11.77;4.80;;;;;;;6.45;54.03;100465.66;10508081;28;20037;-67
2021/03/22 17:26:16;;;;;;;14.48;4.88;;;;;;;6.50;54.07;100463.88;10489279;28;20049;-68
2021/03/22 17:31:19;;;;;;;9.05;4.00;;;;;;;6.42;54.43;100471.81;10511056;28;20029;-68
2021/03/22 17:36:22;;;;;;;13.10;4.43;;;;;;;6.37;54.71;100488.34;10511901;28;20414;-68
2021/03/22 17:41:27;;;;;;;13.93;4.82;;;;;;;6.45;54.58;100487.41;10510558;28;20482;-68
2021/03/22 17:46:28;;;;;;;11.50;4.40;;;;;;;6.35;54.79;100492.75;10491654;28;20047;-68
2021/03/22 17:51:36;;;;;;;8.98;5.07;;;;;;;6.15;55.06;100500.69;10541331;27;20409;-67
2021/03/22 17:56:37;;;;;;;14.65;6.25;;;;;;;6.15;55.32;100506.78;10540913;28;20048;-68
2021/03/22 18:01:38;;;;;;;12.30;5.68;;;;;;;6.13;55.56;100516.38;10540318;28;20048;-68
2021/03/22 18:06:40;;;;;;;11.07;5.80;;;;;;;6.19;55.50;100512.84;10538115;28;20051;-68
2021/03/22 18:11:41;;;;;;;12.55;5.60;;;;;;;6.12;55.62;100527.69;10541605;28;20045;-68
2021/03/22 18:16:43;;;;;;;9.07;4.55;;;;;;;6.22;55.23;100529.38;10541743;28;20044;-68
2021/03/22 18:21:44;;;;;;;12.35;4.78;;;;;;;6.13;55.14;100533.78;10551964;28;20055;-68
2021/03/22 18:26:46;;;;;;;25.92;6.15;;;;;;;6.17;55.14;100540.72;10541350;28;20050;-70
2021/03/22 18:31:56;;;;;;;11.00;4.60;;;;;;;6.19;55.07;100538.94;10541526;28;20075;-69
2021/03/22 18:36:59;;;;;;;10.82;4.75;;;;;;;6.18;54.82;100545.06;10542851;28;20405;-68
2021/03/22 18:42:01;;;;;;;13.15;5.35;;;;;;;5.95;55.41;100560.84;10543652;28;20040;-67
2021/03/22 18:47:03;;;;;;;9.05;4.82;;;;;;;6.00;55.13;100566.91;10541451;28;20086;-67
2021/03/22 18:52:05;;;;;;;10.07;4.35;;;;;;;6.10;54.44;100568.56;10541255;28;20071;-68
2021/03/22 18:57:08;;;;;;;13.95;4.53;;;;;;;6.04;54.40;100574.69;10546901;28;20044;-70
2021/03/22 19:02:15;;;;;;;9.95;4.00;;;;;;;6.11;54.50;100578.16;10518587;28;20056;-67
2021/03/22 19:07:18;;;;;;;11.98;4.22;;;;;;;6.06;54.39;100585.13;10522515;28;20115;-68
2021/03/22 19:12:20;;;;;;;9.82;4.43;;;;;;;5.87;55.53;100596.50;10517085;28;20056;-69
2021/03/22 19:17:22;;;;;;;7.70;4.32;;;;;;;5.80;55.45;100603.47;10516221;28;20049;-70
2021/03/22 19:22:24;;;;;;;13.18;5.13;;;;;;;5.77;55.36;100595.66;10519264;28;20047;-70
2021/03/22 19:27:26;;;;;;;13.90;5.18;;;;;;;5.71;55.56;100603.47;10501567;28;20047;-70
2021/03/22 19:32:39;;;;;;;10.32;5.90;;;;;;;5.49;56.25;100603.56;10510051;28;20041;-68
2021/03/22 19:37:41;;;;;;;10.82;5.18;;;;;;;5.61;55.73;100609.59;10510995;28;20044;-69
2021/03/22 19:42:46;;;;;;;12.93;5.47;;;;;;;5.53;55.84;100605.28;10511282;28;20048;-69
2021/03/22 19:47:47;;;;;;;12.05;5.72;;;;;;;5.45;55.57;100614.00;10512911;28;20060;-69
2021/03/22 19:52:50;;;;;;;15.30;6.45;;;;;;;5.40;55.69;100618.31;10515130;28;20094;-70
2021/03/22 19:57:52;;;;;;;13.07;5.93;;;;;;;5.18;56.13;100630.50;10516623;28;20056;-69
2021/03/22 20:03:03;;;;;;;10.52;5.15;;;;;;;5.17;56.09;100626.16;10509702;28;20044;-68
2021/03/22 20:08:05;;;;;;;15.25;6.43;;;;;;;4.87;56.48;100627.91;10521478;28;20059;-71
2021/03/22 20:13:10;;;;;;;13.25;5.28;;;;;;;4.86;56.39;100631.38;10512393;28;20052;-69
2021/03/22 20:18:15;;;;;;;13.60;5.65;;;;;;;4.63;57.13;100635.69;10510873;28;20048;-69
2021/03/22 20:23:20;;;;;;;16.15;6.85;;;;;;;4.58;57.43;100634.81;10509895;28;20049;-69
2021/03/22 20:28:33;;;;;;;10.93;6.75;;;;;;;4.51;57.96;100629.56;10514796;28;20088;-70
2021/03/22 20:33:37;;;;;;;7.90;5.57;;;;;;;4.51;57.61;100634.78;10505482;28;20052;-70
2021/03/22 20:38:40;;;;;;;9.18;5.28;;;;;;;4.48;57.72;100634.78;10512718;28;20055;-69
2021/03/22 20:43:42;;;;;;;7.93;5.32;;;;;;;4.41;57.84;100637.38;10512588;28;20099;-68
2021/03/22 20:48:43;;;;;;;12.80;5.85;;;;;;;4.35;57.88;100633.00;10506257;28;20037;-68
2021/03/22 20:53:45;;;;;;;10.48;5.45;;;;;;;4.34;57.50;100639.09;10506837;28;20079;-70
2021/03/22 20:58:48;;;;;;;10.90;6.25;;;;;;;4.20;57.99;100633.81;10519586;28;20040;-68
2021/03/22 21:03:50;;;;;;;13.65;5.95;;;;;;;4.29;57.52;100636.47;10514220;28;20064;-68
2021/03/22 21:08:51;;;;;;;17.48;6.70;;;;;;;4.36;57.08;100639.09;10505435;28;20509;-68
2021/03/22 21:13:53;;;;;;;12.00;5.40;;;;;;;4.22;57.25;100652.06;10507935;28;20494;-67
2021/03/22 21:18:55;;;;;;;10.75;5.68;;;;;;;4.09;57.68;100651.13;10505997;28;20139;-68
2021/03/22 21:23:59;;;;;;;12.93;6.72;;;;;;;4.10;57.40;100639.00;10504520;28;20540;-68
2021/03/22 21:29:00;;;;;;;12.45;5.68;;;;;;;4.08;57.20;100644.19;10505582;28;20044;-68
2021/03/22 21:34:11;;;;;;;14.98;5.97;;;;;;;4.12;57.14;100650.25;10505706;28;20082;-67
2021/03/22 21:39:12;;;;;;;13.68;6.22;;;;;;;4.08;57.39;100643.31;10507052;28;20133;-67
2021/03/22 21:44:16;;;;;;;9.73;6.10;;;;;;;4.18;57.21;100642.50;10508212;28;20379;-67
2021/03/22 21:49:18;;;;;;;13.93;6.55;;;;;;;4.21;56.71;100642.50;10509319;28;20047;-67
2021/03/22 21:54:19;;;;;;;12.27;6.65;;;;;;;4.26;56.98;100640.78;10505682;28;20486;-66
2021/03/22 21:59:20;;;;;;;9.70;6.05;;;;;;;4.29;56.72;100631.28;10502811;28;20059;-67
2021/03/22 22:04:33;;;;;;;10.93;5.93;;;;;;;4.26;56.84;100635.59;10503359;28;20455;-67
2021/03/22 22:09:35;;;;;;;12.43;6.13;;;;;;;4.27;56.20;100629.50;10504017;28;20040;-68
2021/03/22 22:14:36;;;;;;;12.68;5.32;;;;;;;4.44;55.50;100625.22;10503823;28;20106;-68
2021/03/22 22:19:38;;;;;;;15.68;6.38;;;;;;;4.36;55.88;100632.13;10502611;28;20032;-68
2021/03/22 22:24:42;;;;;;;12.85;6.15;;;;;;;4.41;55.58;100633.03;10503162;28;20052;-67
2021/03/22 22:29:44;;;;;;;12.02;5.60;;;;;;;4.43;55.74;100635.66;10504108;28;20043;-68
2021/03/22 22:34:54;;;;;;;14.27;5.68;;;;;;;4.49;55.56;100638.25;10506003;28;20037;-69
2021/03/22 22:39:55;;;;;;;15.63;5.88;;;;;;;4.54;54.98;100639.13;10511055;28;20143;-70
2021/03/22 22:44:56;;;;;;;8.63;5.05;;;;;;;4.60;55.06;100633.94;10509630;28;20127;-69
2021/03/22 22:50:04;;;;;;;9.68;5.53;;;;;;;4.42;55.83;100642.56;10511465;28;20051;-69
2021/03/22 22:55:11;;;;;;;12.75;5.10;;;;;;;4.52;55.94;100639.13;10509601;28;20113;-69
2021/03/22 23:00:37;;;;;;;8.32;5.60;;;;;;;4.52;56.54;100644.34;10508473;28;20098;-68
2021/03/22 23:05:45;;;;;;;11.30;5.50;;;;;;;4.54;57.06;100637.41;10508046;28;20052;-70
2021/03/22 23:10:51;;;;;;;15.32;6.72;;;;;;;4.65;57.62;100641.75;10507688;28;20041;-70
2021/03/22 23:15:52;;;;;;;14.27;6.53;;;;;;;4.48;58.40;100637.38;10507965;28;20482;-70
2021/03/22 23:21:08;;;;;;;11.45;6.43;;;;;;;4.39;59.18;100641.72;10508067;28;20473;-70
2021/03/22 23:26:12;;;;;;;8.32;5.68;;;;;;;4.45;59.66;100639.97;10507651;28;20114;-69
2021/03/22 23:31:18;;;;;;;10.07;6.22;;;;;;;4.36;60.34;100642.56;10506552;28;20552;-70
2021/03/22 23:36:24;;;;;;;7.80;5.45;;;;;;;4.42;60.71;100639.97;10505985;28;20485;-69
2021/03/22 23:41:27;;;;;;;7.75;5.85;;;;;;;4.57;60.84;100649.56;10505223;28;20048;-69
2021/03/22 23:46:29;;;;;;;9.18;5.70;;;;;;;4.53;61.07;100646.06;10487920;28;20113;-69